Time;durP1;ratioP1;P1;durP2;ratioP2;P2;SDS_P1;SDS_P2;PMS_P1;PMS_P2;Temp;Humidity;BMP_temperature;BMP_pressure;BME280_temperature;BME280_humidity;BME280_pressure;Samples;Min_cycle;Max_cycle;Signal;HPM_P1;HPM_P2
2022/09/02 00:02:11;;;;;;;7.43;3.90;;;;;;;;;;5058487;28;20105;-56
2022/09/02 00:04:37;;;;;;;5.20;4.07;;;;;;;;;;5060986;28;20083;-56
2022/09/02 00:07:02;;;;;;;6.63;4.07;;;;;;;;;;5060723;28;20444;-56
2022/09/02 00:09:28;;;;;;;4.40;4.00;;;;;;;;;;5058203;28;20025;-56
2022/09/02 00:11:55;;;;;;;5.07;4.10;;;;;;;;;;5054472;28;20041;-57
2022/09/02 00:14:34;;;;;;;4.65;4.07;;;;;;;;;;5063547;28;20031;-57
2022/09/02 00:17:00;;;;;;;6.25;4.30;;;;;;;;;;5062164;28;20035;-56
2022/09/02 00:19:27;;;;;;;5.30;3.95;;;;;;;;;;5061841;28;20033;-56
2022/09/02 00:21:54;;;;;;;9.55;4.25;;;;;;;;;;5063528;28;20028;-57
2022/09/02 00:24:21;;;;;;;7.63;3.75;;;;;;;;;;5064658;28;20048;-56
2022/09/02 00:26:47;;;;;;;5.65;3.88;;;;;;;;;;5064068;28;20027;-57
2022/09/02 00:29:13;;;;;;;4.70;4.10;;;;;;;;;;5069700;28;20628;-57
2022/09/02 00:31:41;;;;;;;4.78;4.30;;;;;;;;;;5065080;28;20031;-56
2022/09/02 00:34:07;;;;;;;4.55;4.07;;;;;;;;;;5068411;28;20032;-56
2022/09/02 00:36:33;;;;;;;5.18;4.13;;;;;;;;;;5066377;28;20024;-56
2022/09/02 00:38:59;;;;;;;4.88;4.25;;;;;;;;;;5062719;28;20031;-56
2022/09/02 00:41:27;;;;;;;5.00;4.10;;;;;;;;;;5063070;28;20020;-56
2022/09/02 00:43:59;;;;;;;5.43;4.20;;;;;;;;;;5063110;28;20025;-56
2022/09/02 00:46:27;;;;;;;4.80;4.30;;;;;;;;;;5063100;28;20024;-56
2022/09/02 00:49:01;;;;;;;4.47;3.95;;;;;;;;;;5064489;28;20052;-57
2022/09/02 00:51:32;;;;;;;6.30;4.53;;;;;;;;;;5054092;28;20055;-56
2022/09/02 00:53:58;;;;;;;4.63;4.10;;;;;;;;;;5062667;28;20013;-56
2022/09/02 00:56:26;;;;;;;6.82;4.40;;;;;;;;;;5059934;28;20115;-56
2022/09/02 00:58:53;;;;;;;8.45;4.82;;;;;;;;;;5059907;28;20083;-57
2022/09/02 01:01:21;;;;;;;8.00;4.55;;;;;;;;;;5057625;28;20033;-56
2022/09/02 01:03:47;;;;;;;5.57;4.53;;;;;;;;;;5061393;28;20078;-56
2022/09/02 01:06:14;;;;;;;7.03;4.85;;;;;;;;;;5058421;28;20020;-56
2022/09/02 01:08:46;;;;;;;6.60;4.53;;;;;;;;;;5057104;28;20019;-56
2022/09/02 01:11:11;;;;;;;4.60;4.13;;;;;;;;;;5072150;28;20139;-56
2022/09/02 01:13:41;;;;;;;4.95;4.25;;;;;;;;;;5061488;28;20456;-56
2022/09/02 01:16:32;;;;;;;5.25;4.15;;;;;;;;;;5061758;28;20032;-56
2022/09/02 01:19:00;;;;;;;4.65;4.15;;;;;;;;;;5064395;28;20481;-56
2022/09/02 01:21:25;;;;;;;4.90;4.05;;;;;;;;;;5063642;28;20059;-56
2022/09/02 01:23:52;;;;;;;5.05;4.47;;;;;;;;;;5061272;28;20048;-56
2022/09/02 01:26:18;;;;;;;6.35;4.32;;;;;;;;;;5059493;28;20554;-56
2022/09/02 01:28:43;;;;;;;5.07;4.38;;;;;;;;;;5065895;28;20108;-56
2022/09/02 01:31:09;;;;;;;5.95;4.35;;;;;;;;;;5067910;28;20086;-56
2022/09/02 01:33:35;;;;;;;6.32;4.53;;;;;;;;;;5065495;28;20440;-56
2022/09/02 01:36:03;;;;;;;5.28;4.20;;;;;;;;;;5066359;28;20044;-56
2022/09/02 01:38:30;;;;;;;5.63;4.30;;;;;;;;;;5059829;28;20082;-56
2022/09/02 01:40:55;;;;;;;7.22;4.30;;;;;;;;;;5058926;28;20421;-55
2022/09/02 01:43:24;;;;;;;5.07;4.60;;;;;;;;;;5063632;28;20103;-55
2022/09/02 01:45:52;;;;;;;6.57;4.53;;;;;;;;;;5059157;28;20413;-55
2022/09/02 01:48:18;;;;;;;6.45;4.65;;;;;;;;;;5059932;28;20096;-55
2022/09/02 01:50:49;;;;;;;5.85;4.13;;;;;;;;;;5060144;28;20032;-55
2022/09/02 01:53:15;;;;;;;6.10;4.47;;;;;;;;;;5059911;28;20036;-57
2022/09/02 01:55:41;;;;;;;5.82;4.45;;;;;;;;;;5058161;28;20025;-55
2022/09/02 01:58:07;;;;;;;5.40;4.07;;;;;;;;;;5061996;28;20461;-56
2022/09/02 02:00:33;;;;;;;3.92;3.53;;;;;;;;;;5058356;28;20044;-57
2022/09/02 02:02:58;;;;;;;4.57;3.60;;;;;;;;;;5059257;28;20012;-57
2022/09/02 02:05:24;;;;;;;4.25;3.80;;;;;;;;;;5056293;28;20516;-56
2022/09/02 02:07:50;;;;;;;5.72;4.03;;;;;;;;;;5056469;28;20082;-57
2022/09/02 02:10:19;;;;;;;6.72;4.10;;;;;;;;;;5056118;28;20029;-56
2022/09/02 02:12:45;;;;;;;5.88;4.32;;;;;;;;;;5062909;28;20486;-57
2022/09/02 02:15:14;;;;;;;4.90;4.38;;;;;;;;;;5059920;28;20067;-56
2022/09/02 02:17:39;;;;;;;4.80;4.20;;;;;;;;;;5060449;28;20107;-56
2022/09/02 02:20:06;;;;;;;5.88;4.22;;;;;;;;;;5062715;28;20112;-57
2022/09/02 02:22:32;;;;;;;5.55;4.13;;;;;;;;;;5061428;28;20035;-56
2022/09/02 02:24:58;;;;;;;4.38;3.95;;;;;;;;;;5055123;28;20017;-57
2022/09/02 02:27:23;;;;;;;5.63;3.85;;;;;;;;;;5064934;28;20488;-57
2022/09/02 02:29:49;;;;;;;5.13;4.10;;;;;;;;;;5055771;28;20023;-57
2022/09/02 02:32:17;;;;;;;4.93;4.03;;;;;;;;;;5065549;28;20033;-57
2022/09/02 02:34:43;;;;;;;4.38;3.97;;;;;;;;;;5064046;28;20055;-57
2022/09/02 02:37:11;;;;;;;4.32;3.80;;;;;;;;;;5064184;28;20086;-57
2022/09/02 02:39:36;;;;;;;4.20;3.80;;;;;;;;;;5060749;28;20494;-57
2022/09/02 02:42:02;;;;;;;5.47;3.70;;;;;;;;;;5062982;28;20075;-57
2022/09/02 02:44:28;;;;;;;4.40;3.75;;;;;;;;;;5064395;28;20073;-57
2022/09/02 02:46:54;;;;;;;5.45;3.75;;;;;;;;;;5060864;28;20056;-57
2022/09/02 02:49:19;;;;;;;5.88;3.70;;;;;;;;;;5058036;28;20060;-57
2022/09/02 02:51:45;;;;;;;5.00;3.55;;;;;;;;;;5063387;28;20035;-57
2022/09/02 02:54:13;;;;;;;6.45;3.67;;;;;;;;;;5057462;28;20477;-57
2022/09/02 02:56:39;;;;;;;7.30;3.67;;;;;;;;;;5056420;28;20028;-57
2022/09/02 02:59:04;;;;;;;4.00;3.53;;;;;;;;;;5056404;28;20036;-57
2022/09/02 03:01:30;;;;;;;3.70;3.30;;;;;;;;;;5054434;28;20481;-57
2022/09/02 03:03:56;;;;;;;3.60;3.30;;;;;;;;;;5058450;28;20028;-57
2022/09/02 03:06:22;;;;;;;3.65;3.20;;;;;;;;;;5054957;28;20036;-57
2022/09/02 03:08:47;;;;;;;5.93;3.30;;;;;;;;;;5056538;28;20079;-56
2022/09/02 03:11:14;;;;;;;4.15;3.33;;;;;;;;;;5063391;28;20067;-59
2022/09/02 03:13:40;;;;;;;4.93;3.25;;;;;;;;;;5063936;28;20056;-57
2022/09/02 03:16:06;;;;;;;3.70;3.20;;;;;;;;;;5059051;28;20063;-57
2022/09/02 03:18:33;;;;;;;3.55;3.10;;;;;;;;;;5057773;28;20025;-57
2022/09/02 03:20:58;;;;;;;6.10;3.20;;;;;;;;;;5057260;28;20094;-56
2022/09/02 03:23:24;;;;;;;4.55;3.20;;;;;;;;;;5060766;28;20024;-57
2022/09/02 03:25:50;;;;;;;3.80;3.13;;;;;;;;;;5066160;28;20028;-57
2022/09/02 03:28:16;;;;;;;5.35;3.88;;;;;;;;;;5065996;28;20564;-57
2022/09/02 03:30:44;;;;;;;4.95;3.38;;;;;;;;;;5063201;28;20478;-57
2022/09/02 03:33:09;;;;;;;8.05;3.63;;;;;;;;;;5066716;28;20024;-56
2022/09/02 03:35:40;;;;;;;5.03;4.00;;;;;;;;;;5066474;28;20070;-57
2022/09/02 03:38:06;;;;;;;6.15;4.20;;;;;;;;;;5067184;28;20037;-56
2022/09/02 03:40:31;;;;;;;4.30;3.60;;;;;;;;;;5063565;28;20436;-57
2022/09/02 03:42:57;;;;;;;6.45;4.28;;;;;;;;;;5064506;28;20381;-57
2022/09/02 03:45:22;;;;;;;6.65;4.45;;;;;;;;;;5066439;28;20028;-57
2022/09/02 03:47:55;;;;;;;4.80;3.80;;;;;;;;;;5063260;28;20024;-56
2022/09/02 03:50:25;;;;;;;5.85;4.50;;;;;;;;;;5060646;28;20023;-57
2022/09/02 03:52:51;;;;;;;5.35;4.05;;;;;;;;;;5062215;28;20100;-57
2022/09/02 03:55:17;;;;;;;5.95;4.25;;;;;;;;;;5061558;28;20025;-57
2022/09/02 03:57:43;;;;;;;6.65;4.30;;;;;;;;;;5060933;28;20398;-56
2022/09/02 04:00:11;;;;;;;9.60;4.60;;;;;;;;;;5058647;28;20036;-57
2022/09/02 04:02:36;;;;;;;6.70;4.88;;;;;;;;;;5060463;28;20494;-57
2022/09/02 04:05:02;;;;;;;8.40;5.00;;;;;;;;;;5060384;28;20036;-57
2022/09/02 04:07:28;;;;;;;7.82;5.03;;;;;;;;;;5058707;28;20029;-57
2022/09/02 04:09:55;;;;;;;6.40;4.45;;;;;;;;;;5056281;28;20110;-57
2022/09/02 04:12:21;;;;;;;8.23;5.45;;;;;;;;;;5063472;28;20111;-56
2022/09/02 04:14:47;;;;;;;5.75;4.60;;;;;;;;;;5064707;28;20103;-57
2022/09/02 04:23:31;;;;;;;4.88;3.80;;;;;;;;;;5060010;28;20032;-57
2022/09/02 04:25:56;;;;;;;5.95;3.90;;;;;;;;;;5068960;28;20048;-57
2022/09/02 04:28:23;;;;;;;5.10;4.15;;;;;;;;;;5064147;28;20083;-57
2022/09/02 04:30:49;;;;;;;6.80;4.60;;;;;;;;;;5067302;28;20052;-57
2022/09/02 04:33:16;;;;;;;5.93;3.80;;;;;;;;;;5065874;28;20050;-57
2022/09/02 04:35:44;;;;;;;5.25;4.22;;;;;;;;;;5064028;28;20028;-57
2022/09/02 04:38:10;;;;;;;5.13;4.18;;;;;;;;;;5061228;28;20036;-57
2022/09/02 04:40:41;;;;;;;5.88;3.85;;;;;;;;;;5062906;28;20033;-57
2022/09/02 04:43:06;;;;;;;6.90;4.20;;;;;;;;;;5062369;28;20036;-57
2022/09/02 04:45:32;;;;;;;5.68;4.68;;;;;;;;;;5062847;28;20037;-57
2022/09/02 04:47:57;;;;;;;7.28;4.43;;;;;;;;;;5063234;28;20016;-57
2022/09/02 04:50:23;;;;;;;7.63;4.40;;;;;;;;;;5059011;28;20039;-57
2022/09/02 04:52:48;;;;;;;6.07;3.83;;;;;;;;;;5060220;28;20021;-57
2022/09/02 04:55:14;;;;;;;7.65;4.65;;;;;;;;;;5057983;28;20025;-57
2022/09/02 04:57:39;;;;;;;6.53;4.75;;;;;;;;;;5061533;28;20024;-57
2022/09/02 05:00:06;;;;;;;8.90;4.40;;;;;;;;;;5053064;28;20055;-57
2022/09/02 05:02:32;;;;;;;6.75;4.57;;;;;;;;;;5057136;28;20033;-58
2022/09/02 05:04:58;;;;;;;7.07;4.25;;;;;;;;;;5057220;28;20017;-58
2022/09/02 05:07:23;;;;;;;6.63;4.30;;;;;;;;;;5058339;28;20021;-59
2022/09/02 05:09:50;;;;;;;5.60;4.07;;;;;;;;;;5064467;28;20028;-58
2022/09/02 05:12:17;;;;;;;7.80;4.03;;;;;;;;;;5060803;28;20079;-59
2022/09/02 05:14:43;;;;;;;5.65;4.50;;;;;;;;;;5061570;28;20036;-59
2022/09/02 05:17:08;;;;;;;5.75;4.40;;;;;;;;;;5063998;28;20098;-58
2022/09/02 05:19:33;;;;;;;7.45;4.53;;;;;;;;;;5063795;28;20048;-57
2022/09/02 05:22:00;;;;;;;5.82;4.63;;;;;;;;;;5059383;28;20045;-58
2022/09/02 05:24:26;;;;;;;5.53;4.30;;;;;;;;;;5064941;28;20043;-59
2022/09/02 05:26:52;;;;;;;6.20;4.60;;;;;;;;;;5066876;28;20464;-58
2022/09/02 05:29:19;;;;;;;5.43;3.97;;;;;;;;;;5067157;28;20032;-58
2022/09/02 05:31:46;;;;;;;6.75;4.35;;;;;;;;;;5060557;28;20029;-58
2022/09/02 05:34:12;;;;;;;7.15;4.60;;;;;;;;;;5064950;28;20048;-58
2022/09/02 05:36:38;;;;;;;6.30;4.75;;;;;;;;;;5062320;28;20397;-59
2022/09/02 05:39:04;;;;;;;4.90;4.40;;;;;;;;;;5064362;28;20020;-58
2022/09/02 05:41:29;;;;;;;8.32;4.07;;;;;;;;;;5060969;28;20124;-58
2022/09/02 05:43:58;;;;;;;5.40;4.63;;;;;;;;;;5062287;28;20024;-58
2022/09/02 05:46:24;;;;;;;7.45;4.93;;;;;;;;;;5058432;28;20028;-59
2022/09/02 05:49:07;;;;;;;9.82;5.03;;;;;;;;;;5052233;28;20103;-59
2022/09/02 05:51:41;;;;;;;6.40;4.95;;;;;;;;;;5057888;28;20470;-59
2022/09/02 05:54:10;;;;;;;7.18;4.57;;;;;;;;;;5061649;28;20028;-59
2022/09/02 05:56:38;;;;;;;4.88;4.07;;;;;;;;;;5056553;28;20401;-58
2022/09/02 05:59:05;;;;;;;5.35;4.50;;;;;;;;;;5059296;28;20024;-59
2022/09/02 06:01:31;;;;;;;7.55;4.72;;;;;;;;;;5055953;28;20171;-58
2022/09/02 06:03:57;;;;;;;7.13;5.30;;;;;;;;;;5056166;28;20545;-58
2022/09/02 06:06:23;;;;;;;8.68;4.85;;;;;;;;;;5057139;28;20029;-58
2022/09/02 06:08:49;;;;;;;10.45;4.97;;;;;;;;;;5063462;28;20031;-59
2022/09/02 06:11:16;;;;;;;5.30;4.30;;;;;;;;;;5059953;28;20032;-59
2022/09/02 06:13:42;;;;;;;6.57;4.50;;;;;;;;;;5062004;28;20032;-58
2022/09/02 06:16:12;;;;;;;7.57;5.10;;;;;;;;;;5062289;28;20034;-58
2022/09/02 06:18:37;;;;;;;6.68;4.82;;;;;;;;;;5061912;28;20116;-58
2022/09/02 06:21:04;;;;;;;7.82;4.85;;;;;;;;;;5066518;28;20103;-58
2022/09/02 06:23:32;;;;;;;7.53;5.30;;;;;;;;;;5065359;28;20031;-58
2022/09/02 06:25:58;;;;;;;7.68;4.63;;;;;;;;;;5067165;28;20457;-58
2022/09/02 06:28:24;;;;;;;6.72;4.53;;;;;;;;;;5066755;28;20025;-58
2022/09/02 06:30:49;;;;;;;6.72;4.82;;;;;;;;;;5064912;28;20025;-59
2022/09/02 06:33:15;;;;;;;8.27;4.30;;;;;;;;;;5061383;28;20545;-58
2022/09/02 06:35:43;;;;;;;6.72;3.92;;;;;;;;;;5063179;28;20060;-59
2022/09/02 06:38:10;;;;;;;6.00;4.63;;;;;;;;;;5061864;28;20063;-59
2022/09/02 06:40:44;;;;;;;5.50;4.20;;;;;;;;;;5057867;28;20491;-58
2022/09/02 06:43:09;;;;;;;8.48;4.50;;;;;;;;;;5059355;28;20024;-58
2022/09/02 06:45:39;;;;;;;8.13;4.40;;;;;;;;;;5058701;28;20033;-58
2022/09/02 06:48:04;;;;;;;;;;;;;;;;;;5061659;28;20547;-58
2022/09/02 06:50:30;;;;;;;5.50;4.68;;;;;;;;;;5057226;28;19963;-58
2022/09/02 06:52:55;;;;;;;7.22;4.82;;;;;;;;;;5052950;28;20038;-59
2022/09/02 06:55:21;;;;;;;6.35;4.43;;;;;;;;;;5055773;28;20100;-58
2022/09/02 06:57:46;;;;;;;6.95;4.13;;;;;;;;;;5058097;28;20371;-58
2022/09/02 07:00:12;;;;;;;4.53;4.05;;;;;;;;;;5056320;28;20024;-58
2022/09/02 07:02:38;;;;;;;7.18;4.97;;;;;;;;;;5057525;28;20031;-59
2022/09/02 07:05:10;;;;;;;6.38;4.60;;;;;;;;;;5060147;28;20313;-58
2022/09/02 07:07:37;;;;;;;6.13;4.78;;;;;;;;;;5062783;28;20039;-58
2022/09/02 07:10:07;;;;;;;5.93;4.68;;;;;;;;;;5060505;28;20317;-58
2022/09/02 07:12:35;;;;;;;6.28;4.78;;;;;;;;;;5058310;28;20060;-58
2022/09/02 07:15:01;;;;;;;7.25;4.88;;;;;;;;;;5057413;28;20027;-59
2022/09/02 07:17:26;;;;;;;6.22;4.63;;;;;;;;;;5061870;28;20028;-58
2022/09/02 07:19:54;;;;;;;8.18;4.80;;;;;;;;;;5059093;28;20548;-59
2022/09/02 07:22:20;;;;;;;4.97;3.70;;;;;;;;;;5073280;28;20025;-58
2022/09/02 07:24:46;;;;;;;7.15;4.45;;;;;;;;;;5064717;28;20091;-59
2022/09/02 07:27:11;;;;;;;6.85;4.45;;;;;;;;;;5058501;28;20021;-59
2022/09/02 07:29:37;;;;;;;7.20;4.00;;;;;;;;;;5056490;28;20033;-58
2022/09/02 07:32:03;;;;;;;3.83;3.47;;;;;;;;;;5059385;28;20524;-58
2022/09/02 07:34:29;;;;;;;5.55;4.22;;;;;;;;;;5060090;28;20055;-58
2022/09/02 07:36:54;;;;;;;5.68;3.60;;;;;;;;;;5061665;28;20124;-58
2022/09/02 07:39:20;;;;;;;5.78;3.70;;;;;;;;;;5061466;28;20032;-59
2022/09/02 07:41:48;;;;;;;5.30;3.80;;;;;;;;;;5058783;28;20025;-58
2022/09/02 07:44:15;;;;;;;7.25;4.50;;;;;;;;;;5060410;28;20029;-59
2022/09/02 07:46:41;;;;;;;5.40;3.58;;;;;;;;;;5052806;28;20025;-58
2022/09/02 07:49:10;;;;;;;6.53;3.63;;;;;;;;;;5058562;28;20021;-58
2022/09/02 07:51:38;;;;;;;6.13;3.53;;;;;;;;;;5055569;28;20024;-58
2022/09/02 07:54:05;;;;;;;3.67;3.35;;;;;;;;;;5055076;28;20087;-59
2022/09/02 07:56:30;;;;;;;5.28;3.60;;;;;;;;;;5056395;28;20478;-58
2022/09/02 07:58:56;;;;;;;10.90;4.80;;;;;;;;;;5057564;28;20032;-56
2022/09/02 08:01:22;;;;;;;6.63;4.30;;;;;;;;;;5053659;28;20036;-56
2022/09/02 08:03:47;;;;;;;10.75;4.72;;;;;;;;;;5056148;28;20529;-55
2022/09/02 08:06:13;;;;;;;6.20;4.38;;;;;;;;;;5062609;28;20529;-55
2022/09/02 08:08:40;;;;;;;7.63;4.43;;;;;;;;;;5062445;28;20142;-55
2022/09/02 08:11:06;;;;;;;5.95;4.03;;;;;;;;;;5058702;28;20432;-56
2022/09/02 08:13:32;;;;;;;6.75;3.50;;;;;;;;;;5056947;28;20017;-55
2022/09/02 08:15:58;;;;;;;4.78;4.05;;;;;;;;;;5059628;28;20032;-57
2022/09/02 08:18:24;;;;;;;4.93;3.95;;;;;;;;;;5056988;28;20028;-56
2022/09/02 08:20:49;;;;;;;5.30;3.80;;;;;;;;;;5063469;28;20115;-56
2022/09/02 08:23:15;;;;;;;5.80;3.20;;;;;;;;;;5066853;28;20025;-56
2022/09/02 08:25:42;;;;;;;4.43;3.10;;;;;;;;;;5065438;28;20028;-55
2022/09/02 08:28:08;;;;;;;4.07;3.10;;;;;;;;;;5067885;28;20056;-55
2022/09/02 08:30:33;;;;;;;3.47;3.00;;;;;;;;;;5065842;28;20452;-55
2022/09/02 08:32:59;;;;;;;3.50;3.20;;;;;;;;;;5061043;28;20025;-56
2022/09/02 08:35:25;;;;;;;3.83;3.45;;;;;;;;;;5060040;28;20025;-56
2022/09/02 08:37:50;;;;;;;7.43;4.00;;;;;;;;;;5063467;28;20383;-56
2022/09/02 08:40:21;;;;;;;8.50;2.80;;;;;;;;;;5068829;28;20020;-55
2022/09/02 08:42:54;;;;;;;4.47;2.80;;;;;;;;;;5060764;28;20021;-55
2022/09/02 08:45:36;;;;;;;3.90;2.78;;;;;;;;;;5062435;28;20032;-56
2022/09/02 08:48:13;;;;;;;4.13;3.00;;;;;;;;;;5059133;28;20074;-56
2022/09/02 08:50:43;;;;;;;5.30;2.78;;;;;;;;;;5059502;28;20029;-54
2022/09/02 08:53:16;;;;;;;2.97;2.55;;;;;;;;;;5055009;28;20025;-56
2022/09/02 08:55:47;;;;;;;4.15;2.97;;;;;;;;;;5065773;28;20524;-56
2022/09/02 08:58:17;;;;;;;7.63;3.55;;;;;;;;;;5058425;28;20067;-56
2022/09/02 09:00:50;;;;;;;4.78;3.13;;;;;;;;;;5057519;28;20108;-55
2022/09/02 09:03:36;;;;;;;3.58;2.80;;;;;;;;;;5056230;28;20028;-55
2022/09/02 09:06:13;;;;;;;3.17;2.63;;;;;;;;;;5056358;28;20498;-55
2022/09/02 09:08:56;;;;;;;5.25;2.90;;;;;;;;;;5072485;28;20079;-55
2022/09/02 09:11:27;;;;;;;4.38;3.03;;;;;;;;;;5063628;28;20025;-55
2022/09/02 09:14:19;;;;;;;4.70;2.90;;;;;;;;;;5061291;28;20082;-56
2022/09/02 09:16:47;;;;;;;2.80;2.55;;;;;;;;;;5060802;28;20441;-56
2022/09/02 09:19:34;;;;;;;3.45;2.78;;;;;;;;;;5069154;28;20029;-56
2022/09/02 09:22:02;;;;;;;3.63;2.88;;;;;;;;;;5061975;28;20385;-56
2022/09/02 09:24:43;;;;;;;7.50;2.78;;;;;;;;;;5065567;28;20075;-56
2022/09/02 09:27:13;;;;;;;4.60;2.75;;;;;;;;;;5064052;28;20505;-56
2022/09/02 09:29:39;;;;;;;3.97;2.70;;;;;;;;;;5063956;28;20047;-56
2022/09/02 09:32:22;;;;;;;4.55;2.70;;;;;;;;;;5064528;28;20043;-54
2022/09/02 09:34:51;;;;;;;3.15;2.65;;;;;;;;;;5062858;28;20051;-56
2022/09/02 09:37:43;;;;;;;5.90;2.73;;;;;;;;;;5063434;28;20050;-55
2022/09/02 09:40:21;;;;;;;2.92;2.67;;;;;;;;;;5059475;28;20035;-55
2022/09/02 09:42:54;;;;;;;4.00;3.15;;;;;;;;;;5059471;28;20029;-55
2022/09/02 09:45:33;;;;;;;3.65;2.80;;;;;;;;;;5062795;28;20286;-56
2022/09/02 09:48:17;;;;;;;;;;;;;;;;;;5059455;28;20017;-56
2022/09/02 09:50:47;;;;;;;2.75;2.35;;;;;;;;;;5059106;28;19962;-56
2022/09/02 09:53:16;;;;;;;3.63;2.55;;;;;;;;;;5055841;28;20032;-55
2022/09/02 09:56:04;;;;;;;6.70;3.55;;;;;;;;;;5054261;28;20036;-56
2022/09/02 09:58:50;;;;;;;5.85;3.53;;;;;;;;;;5054777;28;20121;-56
2022/09/02 10:01:21;;;;;;;8.85;3.53;;;;;;;;;;5053033;28;20037;-56
2022/09/02 10:03:57;;;;;;;3.53;2.92;;;;;;;;;;5055479;28;20024;-56
2022/09/02 10:06:31;;;;;;;5.82;2.80;;;;;;;;;;5063740;28;20029;-57
2022/09/02 10:09:29;;;;;;;4.03;2.90;;;;;;;;;;5061692;28;20039;-56
2022/09/02 10:11:57;;;;;;;3.00;2.70;;;;;;;;;;5061742;28;20031;-56
2022/09/02 10:14:32;;;;;;;3.30;3.00;;;;;;;;;;5062267;28;20028;-56
2022/09/02 10:17:25;;;;;;;4.43;2.88;;;;;;;;;;5059001;28;20090;-55
2022/09/02 10:19:59;;;;;;;8.63;3.22;;;;;;;;;;5065566;28;20029;-56
2022/09/02 10:22:38;;;;;;;4.60;3.08;;;;;;;;;;5062049;28;20025;-56
2022/09/02 10:25:03;;;;;;;3.60;2.70;;;;;;;;;;5061359;28;20020;-54
2022/09/02 10:27:47;;;;;;;3.00;2.70;;;;;;;;;;5061627;28;20407;-56
2022/09/02 10:30:23;;;;;;;3.97;2.97;;;;;;;;;;5059308;28;20081;-56
2022/09/02 10:33:06;;;;;;;6.50;3.10;;;;;;;;;;5061326;28;20551;-56
2022/09/02 10:35:51;;;;;;;3.85;3.05;;;;;;;;;;5058940;28;20028;-56
2022/09/02 10:38:33;;;;;;;4.40;2.88;;;;;;;;;;5058651;28;20021;-56
2022/09/02 10:41:25;;;;;;;5.30;3.20;;;;;;;;;;5057564;28;20052;-56
2022/09/02 10:44:23;;;;;;;5.95;3.20;;;;;;;;;;5061603;28;20024;-56
2022/09/02 10:47:30;;;;;;;5.00;2.90;;;;;;;;;;5050185;28;20506;-57
2022/09/02 10:50:15;;;;;;;3.65;3.00;;;;;;;;;;5072855;28;20036;-57
2022/09/02 10:52:49;;;;;;;3.38;3.08;;;;;;;;;;5056451;28;20021;-56
2022/09/02 10:55:41;;;;;;;5.78;3.60;;;;;;;;;;5058051;28;20442;-57
2022/09/02 10:58:29;;;;;;;5.75;3.42;;;;;;;;;;5059933;28;20521;-57
2022/09/02 11:00:56;;;;;;;3.00;2.70;;;;;;;;;;5054990;28;20087;-56
2022/09/02 11:03:54;;;;;;;3.95;2.78;;;;;;;;;;5060361;28;20032;-56
2022/09/02 11:06:25;;;;;;;5.80;3.50;;;;;;;;;;5070253;28;20032;-58
2022/09/02 11:08:54;;;;;;;4.35;2.95;;;;;;;;;;5060822;28;20400;-56
2022/09/02 11:11:24;;;;;;;5.32;2.70;;;;;;;;;;5060871;28;20118;-56
2022/09/02 11:14:10;;;;;;;3.45;2.60;;;;;;;;;;5059051;28;20021;-56
2022/09/02 11:16:54;;;;;;;3.83;3.10;;;;;;;;;;5057737;28;20037;-56
2022/09/02 11:19:57;;;;;;;3.90;2.50;;;;;;;;;;5066879;28;20025;-55
2022/09/02 11:22:22;;;;;;;2.92;2.67;;;;;;;;;;5069099;28;20127;-56
2022/09/02 11:25:13;;;;;;;4.10;2.80;;;;;;;;;;5063291;28;20115;-56
2022/09/02 11:27:58;;;;;;;5.93;2.78;;;;;;;;;;5075396;28;20036;-55
2022/09/02 11:30:38;;;;;;;6.20;2.80;;;;;;;;;;5061026;28;20060;-53
2022/09/02 11:33:27;;;;;;;4.40;2.53;;;;;;;;;;5061640;28;20074;-55
2022/09/02 11:35:53;;;;;;;2.50;2.30;;;;;;;;;;5061990;28;20555;-57
2022/09/02 11:38:24;;;;;;;2.78;2.58;;;;;;;;;;5057358;28;20056;-57
2022/09/02 11:41:02;;;;;;;4.65;2.95;;;;;;;;;;5059543;28;20155;-57
2022/09/02 11:43:46;;;;;;;2.97;2.70;;;;;;;;;;5059281;28;20097;-56
2022/09/02 11:46:32;;;;;;;2.97;2.67;;;;;;;;;;5055496;28;20035;-57
2022/09/02 11:49:19;;;;;;;3.38;2.78;;;;;;;;;;5059258;28;20535;-57
2022/09/02 11:51:57;;;;;;;3.67;2.83;;;;;;;;;;5055940;28;20043;-56
2022/09/02 11:54:26;;;;;;;3.10;2.50;;;;;;;;;;5057559;28;20654;-57
2022/09/02 11:57:00;;;;;;;4.18;2.50;;;;;;;;;;5057352;28;20121;-56
2022/09/02 11:59:50;;;;;;;3.47;2.50;;;;;;;;;;5055838;28;20133;-57
2022/09/02 12:02:49;;;;;;;4.35;2.60;;;;;;;;;;5062657;28;20120;-57
2022/09/02 12:05:30;;;;;;;5.80;2.47;;;;;;;;;;5061873;28;20029;-57
2022/09/02 12:07:59;;;;;;;5.68;2.58;;;;;;;;;;5065160;28;20504;-56
2022/09/02 12:10:43;;;;;;;5.05;2.47;;;;;;;;;;5065429;28;20105;-56
2022/09/02 12:13:31;;;;;;;2.67;2.15;;;;;;;;;;5060252;28;20173;-56
2022/09/02 12:16:14;;;;;;;2.38;2.17;;;;;;;;;;5066485;28;20162;-56
2022/09/02 12:18:42;;;;;;;2.70;2.17;;;;;;;;;;5069008;28;20478;-56
2022/09/02 12:21:15;;;;;;;4.00;2.22;;;;;;;;;;5068789;28;20481;-56
2022/09/02 12:23:55;;;;;;;6.00;2.20;;;;;;;;;;5064744;28;20601;-57
2022/09/02 12:26:22;;;;;;;2.75;2.33;;;;;;;;;;5057600;28;20115;-57
2022/09/02 12:28:50;;;;;;;2.70;2.10;;;;;;;;;;5062525;28;20024;-57
2022/09/02 12:31:41;;;;;;;3.03;2.15;;;;;;;;;;5063675;28;20024;-56
2022/09/02 12:34:19;;;;;;;3.13;2.17;;;;;;;;;;5063828;28;20298;-57
2022/09/02 12:36:52;;;;;;;4.73;2.20;;;;;;;;;;5062804;28;20043;-56
2022/09/02 12:39:26;;;;;;;3.40;2.30;;;;;;;;;;5060582;28;20033;-56
2022/09/02 12:42:06;;;;;;;4.35;2.10;;;;;;;;;;5061944;28;20020;-57
2022/09/02 12:44:43;;;;;;;4.72;2.20;;;;;;;;;;5061209;28;20497;-57
2022/09/02 12:47:18;;;;;;;3.28;2.10;;;;;;;;;;5061876;28;20029;-56
2022/09/02 12:50:21;;;;;;;3.50;2.10;;;;;;;;;;5061245;28;20508;-59
2022/09/02 12:52:50;;;;;;;2.95;2.17;;;;;;;;;;5058384;28;20073;-60
2022/09/02 12:55:23;;;;;;;;;;;;;;;;;;5055551;28;20025;-60
2022/09/02 12:57:53;;;;;;;4.28;2.10;;;;;;;;;;5059208;28;19920;-60
2022/09/02 13:00:36;;;;;;;2.95;2.00;;;;;;;;;;5056048;28;20115;-60
2022/09/02 13:03:10;;;;;;;6.28;2.10;;;;;;;;;;5059859;28;20074;-60
2022/09/02 13:05:53;;;;;;;2.42;2.10;;;;;;;;;;5060418;28;20055;-60
2022/09/02 13:08:30;;;;;;;4.88;2.20;;;;;;;;;;5061080;28;20139;-60
2022/09/02 13:11:13;;;;;;;4.15;1.85;;;;;;;;;;5063369;28;20020;-60
2022/09/02 13:13:54;;;;;;;3.17;1.95;;;;;;;;;;5061637;28;20024;-60
2022/09/02 13:16:37;;;;;;;4.00;2.00;;;;;;;;;;5061933;28;20453;-59
2022/09/02 13:19:06;;;;;;;4.07;2.08;;;;;;;;;;5066101;28;20039;-60
2022/09/02 13:22:05;;;;;;;2.13;1.73;;;;;;;;;;5062452;28;20082;-60
2022/09/02 13:25:04;;;;;;;3.80;2.00;;;;;;;;;;5061707;28;20040;-58
2022/09/02 13:27:51;;;;;;;2.13;1.63;;;;;;;;;;5061537;28;20059;-58
2022/09/02 13:30:27;;;;;;;4.07;2.10;;;;;;;;;;5065528;28;20034;-58
2022/09/02 13:33:03;;;;;;;2.97;2.10;;;;;;;;;;5062021;28;20487;-58
2022/09/02 13:35:29;;;;;;;2.20;1.80;;;;;;;;;;5060792;28;20039;-59
2022/09/02 13:37:59;;;;;;;5.97;1.88;;;;;;;;;;5075656;28;20405;-58
2022/09/02 13:40:29;;;;;;;3.83;1.90;;;;;;;;;;5058536;28;20459;-58
2022/09/02 13:42:57;;;;;;;3.40;1.98;;;;;;;;;;5059783;28;20052;-58
2022/09/02 13:45:25;;;;;;;3.03;1.73;;;;;;;;;;5065161;28;20497;-58
2022/09/02 13:47:56;;;;;;;4.63;1.85;;;;;;;;;;5058267;28;20049;-59
2022/09/02 13:50:24;;;;;;;2.70;2.40;;;;;;;;;;5057283;28;20024;-59
2022/09/02 13:52:54;;;;;;;2.83;1.88;;;;;;;;;;5057360;28;20082;-58
2022/09/02 13:55:20;;;;;;;3.15;1.88;;;;;;;;;;5054837;28;20083;-58
2022/09/02 13:57:54;;;;;;;3.03;1.90;;;;;;;;;;5057196;28;20021;-58
2022/09/02 14:00:36;;;;;;;2.78;1.80;;;;;;;;;;5064367;28;20085;-59
2022/09/02 14:03:16;;;;;;;2.10;1.90;;;;;;;;;;5059554;28;20028;-59
2022/09/02 14:05:44;;;;;;;3.35;2.08;;;;;;;;;;5054554;28;20079;-59
2022/09/02 14:08:14;;;;;;;;;;;;;;;;;;5060022;28;20091;-59
2022/09/02 14:10:41;;;;;;;2.95;1.88;;;;;;;;;;5062263;28;19912;-58
2022/09/02 14:13:07;;;;;;;1.75;1.65;;;;;;;;;;5057684;28;20094;-59
2022/09/02 14:15:33;;;;;;;4.25;1.98;;;;;;;;;;5074272;28;20478;-59
2022/09/02 14:18:05;;;;;;;8.32;1.95;;;;;;;;;;5065695;28;20028;-59
2022/09/02 14:20:31;;;;;;;6.13;1.90;;;;;;;;;;5066004;28;20024;-61
2022/09/02 14:22:58;;;;;;;3.08;1.77;;;;;;;;;;5064493;28;20027;-60
2022/09/02 14:25:32;;;;;;;4.55;1.88;;;;;;;;;;5062288;28;20063;-59
2022/09/02 14:28:02;;;;;;;8.27;2.10;;;;;;;;;;5063993;28;20156;-59
2022/09/02 14:30:34;;;;;;;3.15;1.80;;;;;;;;;;5061734;28;20039;-59
2022/09/02 14:33:18;;;;;;;3.83;1.80;;;;;;;;;;5058124;28;20061;-58
2022/09/02 14:35:58;;;;;;;2.65;1.63;;;;;;;;;;5059554;28;20017;-58
2022/09/02 14:38:25;;;;;;;2.08;1.77;;;;;;;;;;5058432;28;20039;-58
2022/09/02 14:40:59;;;;;;;2.22;1.77;;;;;;;;;;5058437;28;20024;-59
2022/09/02 14:43:25;;;;;;;4.07;2.20;;;;;;;;;;5062536;28;20490;-58
2022/09/02 14:46:04;;;;;;;4.63;2.03;;;;;;;;;;5062768;28;20055;-58
2022/09/02 14:48:36;;;;;;;2.75;1.90;;;;;;;;;;5056409;28;20108;-58
2022/09/02 14:51:05;;;;;;;4.60;2.25;;;;;;;;;;5055557;28;20025;-58
2022/09/02 14:53:32;;;;;;;2.58;1.70;;;;;;;;;;5056343;28;20478;-58
2022/09/02 14:55:59;;;;;;;4.07;1.70;;;;;;;;;;5059040;28;20021;-58
2022/09/02 14:58:26;;;;;;;4.45;1.92;;;;;;;;;;5056102;28;20067;-59
2022/09/02 15:00:54;;;;;;;3.40;1.70;;;;;;;;;;5059835;28;20020;-59
2022/09/02 15:03:21;;;;;;;3.90;1.73;;;;;;;;;;5060613;28;20043;-59
2022/09/02 15:05:47;;;;;;;2.05;1.70;;;;;;;;;;5061034;28;20416;-59
2022/09/02 15:08:13;;;;;;;3.67;2.10;;;;;;;;;;5055043;28;20029;-59
2022/09/02 15:10:39;;;;;;;2.55;1.73;;;;;;;;;;5058856;28;20032;-60
2022/09/02 15:13:26;;;;;;;6.47;1.60;;;;;;;;;;5066167;28;20437;-60